Time;durP1;ratioP1;P1;durP2;ratioP2;P2;SDS_P1;SDS_P2;PMS_P1;PMS_P2;Temp;Humidity;BMP_temperature;BMP_pressure;BME280_temperature;BME280_humidity;BME280_pressure;Samples;Min_cycle;Max_cycle;Signal;HPM_P1;HPM_P2
2021/01/03 00:01:59;;;;;;;1.20;1.20;;;4.40;99.90;;;;;;5110952;28;20171;-75
2021/01/03 00:04:24;;;;;;;0.50;0.50;;;4.40;99.90;;;;;;5110794;28;20218;-75
2021/01/03 00:06:52;;;;;;;0.40;0.40;;;4.40;99.90;;;;;;5112073;28;20166;-74
2021/01/03 00:09:18;;;;;;;1.60;1.35;;;4.40;99.90;;;;;;5110651;28;20163;-74
2021/01/03 00:11:44;;;;;;;0.47;0.47;;;4.40;99.90;;;;;;5110733;28;20175;-75
2021/01/03 00:14:10;;;;;;;0.63;0.63;;;4.50;99.90;;;;;;5110766;28;20184;-75
2021/01/03 00:16:37;;;;;;;0.40;0.40;;;4.50;99.90;;;;;;5110589;28;20199;-75
2021/01/03 00:19:04;;;;;;;1.65;1.63;;;4.50;99.90;;;;;;5111802;28;20169;-75
2021/01/03 00:21:30;;;;;;;0.57;0.57;;;4.50;99.90;;;;;;5110642;28;20163;-75
2021/01/03 00:23:56;;;;;;;0.20;0.20;;;4.60;99.90;;;;;;5111723;28;20191;-74
2021/01/03 00:26:22;;;;;;;2.60;0.95;;;4.60;99.90;;;;;;5110366;28;20191;-74
2021/01/03 00:28:49;;;;;;;4.78;1.58;;;4.60;99.90;;;;;;5110409;28;20170;-75
2021/01/03 00:31:15;;;;;;;2.28;2.15;;;4.60;99.90;;;;;;5111591;28;20162;-74
2021/01/03 00:33:41;;;;;;;3.75;3.35;;;4.60;99.90;;;;;;5111580;28;20167;-74
2021/01/03 00:36:07;;;;;;;2.20;2.10;;;4.60;99.90;;;;;;5105325;28;20252;-75
2021/01/03 00:38:33;;;;;;;0.85;0.85;;;4.70;99.90;;;;;;5089859;28;20199;-75
2021/01/03 00:40:59;;;;;;;1.92;1.83;;;4.60;99.90;;;;;;5089564;28;20247;-74
2021/01/03 00:43:28;;;;;;;2.63;1.55;;;4.70;99.90;;;;;;5091005;28;20171;-74
2021/01/03 00:45:53;;;;;;;0.45;0.45;;;4.70;99.90;;;;;;5091089;28;20179;-74
2021/01/03 00:48:19;;;;;;;0.45;0.45;;;4.60;99.90;;;;;;5091027;28;20184;-74
2021/01/03 00:50:45;;;;;;;2.03;1.92;;;4.70;99.90;;;;;;5089767;28;20171;-74
2021/01/03 00:53:11;;;;;;;0.40;0.40;;;4.60;99.90;;;;;;5090666;28;20187;-74
2021/01/03 00:55:37;;;;;;;1.85;1.13;;;4.60;99.90;;;;;;5088651;28;20209;-74
2021/01/03 00:58:03;;;;;;;0.40;0.40;;;4.50;99.90;;;;;;5090771;28;20164;-74
2021/01/03 01:00:32;;;;;;;4.05;1.92;;;4.50;99.90;;;;;;5090734;28;20156;-74
2021/01/03 01:03:00;;;;;;;2.05;0.95;;;4.60;99.90;;;;;;5090516;28;20207;-74
2021/01/03 01:05:26;;;;;;;1.00;0.73;;;4.60;99.90;;;;;;5089402;28;20230;-74
2021/01/03 01:07:52;;;;;;;2.00;1.90;;;4.50;99.90;;;;;;5089276;28;20193;-74
2021/01/03 01:10:23;;;;;;;2.05;1.92;;;4.50;99.90;;;;;;5090513;28;20164;-74
2021/01/03 01:12:53;;;;;;;13.10;1.80;;;4.50;99.90;;;;;;5090412;28;20239;-74
2021/01/03 01:15:21;;;;;;;4.40;2.38;;;4.60;99.90;;;;;;5090527;28;20186;-74
2021/01/03 01:17:53;;;;;;;4.63;4.25;;;4.60;99.90;;;;;;5089192;28;20179;-74
2021/01/03 01:20:22;;;;;;;4.80;1.85;;;4.70;99.90;;;;;;5089019;28;20539;-74
2021/01/03 01:22:48;;;;;;;2.30;1.77;;;4.60;99.90;;;;;;5090268;28;20187;-74
2021/01/03 01:25:17;;;;;;;1.70;1.63;;;4.60;99.90;;;;;;5089002;28;20267;-74
2021/01/03 01:27:42;;;;;;;2.55;2.45;;;4.70;99.90;;;;;;5088916;28;20171;-74
2021/01/03 01:30:10;;;;;;;1.98;1.85;;;4.60;99.90;;;;;;5090210;28;20220;-74
2021/01/03 01:32:36;;;;;;;1.15;1.15;;;4.60;99.90;;;;;;5090017;28;20216;-74
2021/01/03 01:35:03;;;;;;;1.65;1.55;;;4.70;99.90;;;;;;5090047;28;20159;-74
2021/01/03 01:37:29;;;;;;;0.95;0.95;;;4.70;99.90;;;;;;5090007;28;20156;-74
2021/01/03 01:39:55;;;;;;;1.20;1.20;;;4.60;99.90;;;;;;5089854;28;20183;-74
2021/01/03 01:42:20;;;;;;;8.18;2.55;;;4.60;99.90;;;;;;5089847;28;20249;-74
2021/01/03 01:44:46;;;;;;;0.73;0.73;;;4.70;99.90;;;;;;5089850;28;20244;-74
2021/01/03 01:47:30;;;;;;;0.85;0.85;;;4.70;99.90;;;;;;5089809;28;20156;-74
2021/01/03 01:50:00;;;;;;;1.15;1.15;;;4.70;99.90;;;;;;5088611;28;20624;-73
2021/01/03 01:52:31;;;;;;;0.52;0.52;;;4.70;99.90;;;;;;5089673;28;20192;-73
2021/01/03 01:55:03;;;;;;;0.55;0.55;;;4.60;99.90;;;;;;5088574;28;20176;-74
2021/01/03 01:57:38;;;;;;;1.55;1.45;;;4.70;99.90;;;;;;5088487;28;20183;-73
2021/01/03 02:00:08;;;;;;;0.70;0.70;;;4.70;99.90;;;;;;5089713;28;20163;-74
2021/01/03 02:02:34;;;;;;;0.98;0.98;;;4.60;99.90;;;;;;5089599;28;20188;-73
2021/01/03 02:05:10;;;;;;;3.47;2.10;;;4.60;99.90;;;;;;5087988;28;20254;-73
2021/01/03 02:07:54;;;;;;;1.75;1.65;;;4.60;99.90;;;;;;5089556;28;20170;-74
2021/01/03 02:10:34;;;;;;;0.98;0.82;;;4.70;99.90;;;;;;5089514;28;20584;-75
2021/01/03 02:13:23;;;;;;;0.30;0.30;;;4.60;99.90;;;;;;5089372;28;20192;-75
2021/01/03 02:15:50;;;;;;;1.35;1.17;;;4.50;99.90;;;;;;5089444;28;20538;-75
2021/01/03 02:18:16;;;;;;;0.77;0.32;;;4.60;99.90;;;;;;5089439;28;20157;-75
2021/01/03 02:21:14;;;;;;;1.00;0.95;;;4.60;99.90;;;;;;5089366;28;20152;-75
2021/01/03 02:23:46;;;;;;;2.45;1.08;;;4.60;99.90;;;;;;5089274;28;20191;-75
2021/01/03 02:26:13;;;;;;;0.47;0.47;;;4.70;99.90;;;;;;5088031;28;20171;-75
2021/01/03 02:28:42;;;;;;;0.17;0.17;;;4.70;99.90;;;;;;5089308;28;20152;-75
2021/01/03 02:31:11;;;;;;;2.83;1.75;;;4.60;99.90;;;;;;5089204;28;20160;-75
2021/01/03 02:33:41;;;;;;;1.48;1.48;;;4.60;99.90;;;;;;5088018;28;20273;-75
2021/01/03 02:36:27;;;;;;;1.67;1.58;;;4.50;99.90;;;;;;5089228;28;20236;-75
2021/01/03 02:38:58;;;;;;;2.05;1.25;;;4.50;99.90;;;;;;5087952;28;20174;-73
2021/01/03 02:41:24;;;;;;;2.38;2.00;;;4.40;99.90;;;;;;5088964;28;20247;-73
2021/01/03 02:43:50;;;;;;;2.88;1.65;;;4.50;99.90;;;;;;5089047;28;20192;-75
2021/01/03 02:46:15;;;;;;;3.22;2.33;;;4.50;99.90;;;;;;5089113;28;20168;-75
2021/01/03 02:48:42;;;;;;;0.57;0.57;;;4.50;99.90;;;;;;5089157;28;20223;-74
2021/01/03 02:51:08;;;;;;;0.90;0.90;;;4.50;99.90;;;;;;5089032;28;20214;-75
2021/01/03 02:53:34;;;;;;;1.83;1.67;;;4.40;99.90;;;;;;5089060;28;20182;-74
2021/01/03 02:55:59;;;;;;;3.70;1.98;;;4.40;99.90;;;;;;5089010;28;20152;-74
2021/01/03 02:58:25;;;;;;;1.38;1.38;;;4.40;99.90;;;;;;5088973;28;20163;-75
2021/01/03 03:00:51;;;;;;;0.20;0.20;;;4.40;99.90;;;;;;5088962;28;20164;-74
2021/01/03 03:03:17;;;;;;;2.40;2.25;;;4.40;99.90;;;;;;5087477;28;20199;-74
2021/01/03 03:05:43;;;;;;;0.40;0.40;;;4.30;99.90;;;;;;5088961;28;20171;-74
2021/01/03 03:08:08;;;;;;;0.52;0.52;;;4.30;99.90;;;;;;5088869;28;20149;-75
2021/01/03 03:10:34;;;;;;;2.35;2.15;;;4.30;99.90;;;;;;5088912;28;20711;-75
2021/01/03 03:13:00;;;;;;;0.50;0.50;;;4.20;99.90;;;;;;5087551;28;20195;-75
2021/01/03 03:15:32;;;;;;;1.25;1.25;;;4.20;99.90;;;;;;5088785;28;20216;-75
2021/01/03 03:17:59;;;;;;;0.22;0.22;;;4.30;99.90;;;;;;5090505;28;20186;-75
2021/01/03 03:20:25;;;;;;;1.75;1.65;;;4.20;99.90;;;;;;5092803;28;20163;-75
2021/01/03 03:22:51;;;;;;;0.95;0.90;;;4.20;99.90;;;;;;5091312;28;20200;-73
2021/01/03 03:25:19;;;;;;;0.17;0.17;;;4.20;99.90;;;;;;5091355;28;20266;-75
2021/01/03 03:27:45;;;;;;;0.25;0.25;;;4.10;99.90;;;;;;5092597;28;20192;-75
2021/01/03 03:30:15;;;;;;;0.28;0.25;;;4.00;99.90;;;;;;5092506;28;20163;-74
2021/01/03 03:32:41;;;;;;;0.20;0.20;;;3.90;99.90;;;;;;5092398;28;20188;-75
2021/01/03 03:35:09;;;;;;;0.50;0.50;;;3.90;99.90;;;;;;5091110;28;20195;-75
2021/01/03 03:37:34;;;;;;;0.40;0.40;;;3.90;99.90;;;;;;5092268;28;20183;-75
2021/01/03 03:40:00;;;;;;;0.35;0.35;;;3.90;99.90;;;;;;5090837;28;20559;-75
2021/01/03 03:42:26;;;;;;;0.38;0.38;;;4.00;99.90;;;;;;5092164;28;20257;-75
2021/01/03 03:44:52;;;;;;;0.10;0.10;;;4.00;99.90;;;;;;5092148;28;20248;-75
2021/01/03 03:47:17;;;;;;;0.10;0.10;;;4.00;99.90;;;;;;5092144;28;20160;-75
2021/01/03 03:49:43;;;;;;;2.85;2.47;;;4.00;99.90;;;;;;5092109;28;20174;-75
2021/01/03 03:52:09;;;;;;;0.35;0.35;;;3.90;99.90;;;;;;5091992;28;20188;-75
2021/01/03 03:54:35;;;;;;;0.10;0.10;;;3.90;99.90;;;;;;5091989;28;20164;-75
2021/01/03 03:57:05;;;;;;;0.63;0.63;;;3.90;99.90;;;;;;5091997;28;20156;-75
2021/01/03 03:59:31;;;;;;;0.10;0.10;;;3.80;99.90;;;;;;5091819;28;20166;-76
2021/01/03 04:01:57;;;;;;;0.10;0.10;;;3.80;99.90;;;;;;5090531;28;20204;-75
2021/01/03 04:04:25;;;;;;;1.48;1.48;;;3.70;99.90;;;;;;5091784;28;20194;-75
2021/01/03 04:06:51;;;;;;;0.52;0.52;;;3.70;99.90;;;;;;5091584;28;20152;-75
2021/01/03 04:09:17;;;;;;;0.10;0.10;;;3.70;99.90;;;;;;5090425;28;20207;-75
2021/01/03 04:11:46;;;;;;;0.22;0.22;;;3.70;99.90;;;;;;5091727;28;20241;-75
2021/01/03 04:14:15;;;;;;;0.30;0.30;;;3.70;99.90;;;;;;5090120;28;20179;-75
2021/01/03 04:16:45;;;;;;;0.10;0.10;;;3.70;99.90;;;;;;5091664;28;20166;-75
2021/01/03 04:19:12;;;;;;;1.00;1.00;;;3.70;99.90;;;;;;5091373;28;20167;-74
2021/01/03 04:21:37;;;;;;;0.40;0.40;;;3.60;99.90;;;;;;5091538;28;20195;-75
2021/01/03 04:24:04;;;;;;;0.73;0.73;;;3.60;99.90;;;;;;5090116;28;20210;-75
2021/01/03 04:26:29;;;;;;;0.57;0.57;;;3.60;99.90;;;;;;5091410;28;20160;-75
2021/01/03 04:28:55;;;;;;;0.30;0.30;;;3.50;99.90;;;;;;5091126;28;20152;-75
2021/01/03 04:31:21;;;;;;;0.10;0.10;;;3.50;99.90;;;;;;5091170;28;20196;-75
2021/01/03 04:33:47;;;;;;;0.20;0.20;;;3.60;99.90;;;;;;5091388;28;20179;-75
2021/01/03 04:36:17;;;;;;;0.30;0.20;;;3.60;99.90;;;;;;5091233;28;20148;-74
2021/01/03 04:38:44;;;;;;;0.13;0.13;;;3.60;99.90;;;;;;5089920;28;20197;-75
2021/01/03 04:41:23;;;;;;;1.17;1.00;;;3.60;99.90;;;;;;5090778;28;20276;-74
2021/01/03 04:43:50;;;;;;;0.40;0.40;;;3.60;99.90;;;;;;5090842;28;20209;-74
2021/01/03 04:46:20;;;;;;;0.20;0.20;;;3.60;99.90;;;;;;5090910;28;20152;-74
2021/01/03 04:48:50;;;;;;;0.20;0.20;;;3.60;99.90;;;;;;5089488;28;20228;-74
2021/01/03 04:52:01;;;;;;;0.10;0.10;;;3.60;99.90;;;;;;5089652;28;20217;-74
2021/01/03 04:54:33;;;;;;;0.10;0.10;;;3.60;99.90;;;;;;5090877;28;20160;-74
2021/01/03 04:57:01;;;;;;;0.10;0.10;;;3.60;99.90;;;;;;5090879;28;20152;-74
2021/01/03 04:59:43;;;;;;;0.10;0.10;;;3.70;99.90;;;;;;5089455;28;20168;-74
2021/01/03 05:02:11;;;;;;;0.20;0.20;;;3.70;99.90;;;;;;5089361;28;20196;-75
2021/01/03 05:05:02;;;;;;;0.10;0.10;;;3.60;99.90;;;;;;5089286;28;20217;-74
2021/01/03 05:07:39;;;;;;;0.60;0.60;;;3.70;99.90;;;;;;5090666;28;20156;-74
2021/01/03 05:10:22;;;;;;;0.35;0.35;;;3.60;99.90;;;;;;5090430;28;20216;-74
2021/01/03 05:13:25;;;;;;;1.10;1.00;;;3.50;99.90;;;;;;5090481;28;20211;-74
2021/01/03 05:15:51;;;;;;;0.15;0.15;;;3.50;99.90;;;;;;5089312;28;20703;-74
2021/01/03 05:18:16;;;;;;;0.35;0.35;;;3.60;99.90;;;;;;5090335;28;20164;-74
2021/01/03 05:20:51;;;;;;;1.08;0.50;;;3.60;99.90;;;;;;5090394;28;20167;-74
2021/01/03 05:23:20;;;;;;;0.20;0.20;;;3.70;99.90;;;;;;5090165;28;20199;-74
2021/01/03 05:25:47;;;;;;;0.30;0.30;;;3.60;99.90;;;;;;5090395;28;20224;-74
2021/01/03 05:28:26;;;;;;;0.10;0.10;;;3.70;99.90;;;;;;5090177;28;20172;-74
2021/01/03 05:30:53;;;;;;;0.15;0.15;;;3.70;99.90;;;;;;5088854;28;20168;-74
2021/01/03 05:33:26;;;;;;;0.10;0.10;;;3.60;99.90;;;;;;5088729;28;20160;-74
2021/01/03 05:35:53;;;;;;;0.98;0.47;;;3.60;99.90;;;;;;5088594;28;20168;-74
2021/01/03 05:38:41;;;;;;;0.10;0.10;;;3.50;99.90;;;;;;5089940;28;20561;-74
2021/01/03 05:41:22;;;;;;;0.10;0.10;;;3.50;99.90;;;;;;5089113;28;20224;-74
2021/01/03 05:43:55;;;;;;;0.43;0.43;;;3.40;99.90;;;;;;5089825;28;20192;-74
2021/01/03 05:46:30;;;;;;;0.10;0.10;;;3.40;99.90;;;;;;5089900;28;20156;-75
2021/01/03 05:49:01;;;;;;;0.38;0.38;;;3.50;99.90;;;;;;5088451;28;20227;-74
2021/01/03 05:51:39;;;;;;;1.13;1.10;;;3.50;99.90;;;;;;5089651;28;20180;-74
2021/01/03 05:54:09;;;;;;;0.52;0.52;;;3.50;99.90;;;;;;5089707;28;20223;-74
2021/01/03 05:56:36;;;;;;;0.52;0.52;;;3.40;99.90;;;;;;5089745;28;20161;-75
2021/01/03 05:59:03;;;;;;;0.10;0.10;;;3.40;99.90;;;;;;5089635;28;20171;-74
2021/01/03 06:01:34;;;;;;;0.57;0.57;;;3.40;99.90;;;;;;5089471;28;20187;-74
2021/01/03 06:04:19;;;;;;;1.50;1.42;;;3.40;99.90;;;;;;5089624;28;20310;-74
2021/01/03 06:06:51;;;;;;;0.20;0.20;;;3.50;99.90;;;;;;5089653;28;20152;-74
2021/01/03 06:09:30;;;;;;;0.10;0.10;;;3.50;99.90;;;;;;5089512;28;20160;-75
2021/01/03 06:12:06;;;;;;;0.20;0.20;;;3.50;99.90;;;;;;5089362;28;20195;-74
2021/01/03 06:14:32;;;;;;;0.10;0.10;;;3.60;99.90;;;;;;5089464;28;20172;-75
2021/01/03 06:17:07;;;;;;;0.17;0.17;;;3.60;99.90;;;;;;5088156;28;20176;-75
2021/01/03 06:19:36;;;;;;;0.17;0.17;;;3.60;99.90;;;;;;5087980;28;20179;-74
2021/01/03 06:22:29;;;;;;;0.55;0.55;;;3.60;99.90;;;;;;5089188;28;20256;-74
2021/01/03 06:24:57;;;;;;;1.70;1.60;;;3.60;99.90;;;;;;5088669;28;20688;-74
2021/01/03 06:27:34;;;;;;;0.10;0.10;;;3.60;99.90;;;;;;5089320;28;20156;-74
2021/01/03 06:30:13;;;;;;;0.20;0.20;;;3.50;99.90;;;;;;5087990;28;20206;-74
2021/01/03 06:32:50;;;;;;;0.10;0.10;;;3.50;99.90;;;;;;5089180;28;20199;-74
2021/01/03 06:35:42;;;;;;;0.10;0.10;;;3.40;99.90;;;;;;5089226;28;20163;-74
2021/01/03 06:38:32;;;;;;;0.20;0.20;;;3.50;99.90;;;;;;5087762;28;20171;-74
2021/01/03 06:41:07;;;;;;;0.10;0.10;;;3.60;99.90;;;;;;5088860;28;20227;-74
2021/01/03 06:43:55;;;;;;;1.05;0.80;;;3.70;99.90;;;;;;5089140;28;20159;-74
2021/01/03 06:46:42;;;;;;;0.13;0.13;;;3.80;99.90;;;;;;5089041;28;20176;-74
2021/01/03 06:49:33;;;;;;;0.20;0.20;;;3.80;99.90;;;;;;5087579;28;20182;-74
2021/01/03 06:52:23;;;;;;;0.93;0.70;;;3.80;99.90;;;;;;5089059;28;20192;-74
2021/01/03 06:55:07;;;;;;;1.38;1.38;;;3.70;99.90;;;;;;5091817;28;20236;-74
2021/01/03 06:57:44;;;;;;;1.08;0.75;;;3.60;99.90;;;;;;5093050;28;20164;-74
2021/01/03 07:00:15;;;;;;;0.10;0.10;;;3.70;99.90;;;;;;5092982;28;20169;-74
2021/01/03 07:03:00;;;;;;;0.47;0.47;;;3.80;99.90;;;;;;5092953;28;20223;-75
2021/01/03 07:05:26;;;;;;;0.10;0.10;;;3.80;99.90;;;;;;5092860;28;20190;-74
2021/01/03 07:08:03;;;;;;;0.30;0.30;;;3.90;99.90;;;;;;5092872;28;20191;-74
2021/01/03 07:10:34;;;;;;;0.22;0.22;;;3.90;99.90;;;;;;5091601;28;20203;-75
2021/01/03 07:13:00;;;;;;;1.10;1.00;;;3.90;99.90;;;;;;5092839;28;20601;-75
2021/01/03 07:15:26;;;;;;;0.98;0.70;;;3.90;99.90;;;;;;5092738;28;20237;-74
2021/01/03 07:17:54;;;;;;;1.27;0.75;;;3.90;99.90;;;;;;5092574;28;20171;-74
2021/01/03 07:20:36;;;;;;;0.17;0.17;;;3.90;99.90;;;;;;5091258;28;20172;-75
2021/01/03 07:23:26;;;;;;;1.02;0.93;;;3.80;99.90;;;;;;5092545;28;20208;-74
2021/01/03 07:26:29;;;;;;;1.33;1.23;;;3.80;99.90;;;;;;5092504;28;20178;-74
2021/01/03 07:29:15;;;;;;;0.32;0.32;;;3.80;99.90;;;;;;5092174;28;20210;-74
2021/01/03 07:31:59;;;;;;;0.65;0.65;;;3.80;99.90;;;;;;5091080;28;20199;-75
2021/01/03 07:34:34;;;;;;;1.05;1.05;;;3.80;99.90;;;;;;5092445;28;20163;-75
2021/01/03 07:37:12;;;;;;;1.05;1.05;;;3.80;99.90;;;;;;5090914;28;20170;-74
2021/01/03 07:39:58;;;;;;;0.25;0.25;;;3.80;99.90;;;;;;5092128;28;20168;-74
2021/01/03 07:42:27;;;;;;;1.00;1.00;;;3.70;99.90;;;;;;5092198;28;20202;-74
2021/01/03 07:44:55;;;;;;;2.45;2.25;;;3.60;99.90;;;;;;5092082;28;20224;-75
2021/01/03 07:47:49;;;;;;;0.20;0.20;;;3.70;99.90;;;;;;5092077;28;20152;-74
2021/01/03 07:50:24;;;;;;;1.50;1.50;;;3.80;99.90;;;;;;5092024;28;20152;-74
2021/01/03 07:52:51;;;;;;;1.27;0.85;;;3.70;99.90;;;;;;5091904;28;20195;-75
2021/01/03 07:55:26;;;;;;;0.40;0.40;;;3.60;99.90;;;;;;5092002;28;20284;-74
2021/01/03 07:57:58;;;;;;;0.30;0.30;;;3.70;99.90;;;;;;5091920;28;20171;-75
2021/01/03 08:00:26;;;;;;;0.85;0.85;;;3.70;99.90;;;;;;5091770;28;20248;-74
2021/01/03 08:02:57;;;;;;;1.52;1.50;;;3.70;99.90;;;;;;5090057;28;20570;-74
2021/01/03 08:05:24;;;;;;;1.30;1.30;;;3.80;99.90;;;;;;5091707;28;20644;-74
2021/01/03 08:07:50;;;;;;;0.55;0.55;;;3.70;99.90;;;;;;5091779;28;20167;-74
2021/01/03 08:10:17;;;;;;;2.80;2.60;;;3.70;99.90;;;;;;5091618;28;20617;-74
2021/01/03 08:12:53;;;;;;;0.80;0.80;;;3.70;99.90;;;;;;5091608;28;20202;-74
2021/01/03 08:15:27;;;;;;;0.85;0.85;;;3.70;99.90;;;;;;5091402;28;20194;-74
2021/01/03 08:18:04;;;;;;;2.30;2.10;;;3.80;99.90;;;;;;5091573;28;20159;-75
2021/01/03 08:20:31;;;;;;;0.65;0.65;;;3.90;99.90;;;;;;5091503;28;20160;-74
2021/01/03 08:23:17;;;;;;;0.17;0.17;;;3.90;99.90;;;;;;5091458;28;20200;-74
2021/01/03 08:25:43;;;;;;;0.47;0.40;;;4.00;99.90;;;;;;5091375;28;20187;-75
2021/01/03 08:28:18;;;;;;;1.55;1.45;;;4.00;99.90;;;;;;5091272;28;20206;-75
2021/01/03 08:30:47;;;;;;;1.40;1.40;;;4.00;99.90;;;;;;5091370;28;20148;-74
2021/01/03 08:33:33;;;;;;;0.30;0.30;;;4.10;99.90;;;;;;5091228;28;20184;-75
2021/01/03 08:36:14;;;;;;;0.63;0.63;;;4.10;99.90;;;;;;5091284;28;20152;-74
2021/01/03 08:38:40;;;;;;;0.50;0.50;;;4.20;99.90;;;;;;5090904;28;20152;-75
2021/01/03 08:41:11;;;;;;;1.15;1.15;;;4.20;99.90;;;;;;5090922;28;20222;-75
2021/01/03 08:43:40;;;;;;;0.57;0.57;;;4.20;99.90;;;;;;5091028;28;20186;-74
2021/01/03 08:46:07;;;;;;;0.20;0.20;;;4.30;99.90;;;;;;5089549;28;20179;-74
2021/01/03 08:48:34;;;;;;;0.52;0.52;;;4.30;99.90;;;;;;5090889;28;20152;-75
2021/01/03 08:51:14;;;;;;;3.20;2.97;;;4.30;99.90;;;;;;5090765;28;20239;-74
2021/01/03 08:53:40;;;;;;;1.85;1.45;;;4.30;99.90;;;;;;5090839;28;20182;-74
2021/01/03 08:56:19;;;;;;;0.38;0.38;;;4.30;99.90;;;;;;5090821;28;20182;-74
2021/01/03 08:58:45;;;;;;;3.28;1.13;;;4.30;99.90;;;;;;5090802;28;20159;-75
2021/01/03 09:01:37;;;;;;;1.55;1.48;;;4.30;99.90;;;;;;5090430;28;20209;-75
2021/01/03 09:04:07;;;;;;;1.10;1.10;;;4.30;99.90;;;;;;5090190;28;20196;-74
2021/01/03 09:06:35;;;;;;;1.77;1.77;;;4.40;99.90;;;;;;5090721;28;20156;-75
2021/01/03 09:09:19;;;;;;;2.13;1.88;;;4.40;99.90;;;;;;5089256;28;20176;-75
2021/01/03 09:11:53;;;;;;;2.08;1.98;;;4.50;99.90;;;;;;5090485;28;20183;-75
2021/01/03 09:14:33;;;;;;;2.97;2.65;;;4.40;99.90;;;;;;5088434;28;20432;-74
2021/01/03 09:17:12;;;;;;;0.88;0.88;;;4.50;99.90;;;;;;5090021;28;20164;-75
2021/01/03 09:20:06;;;;;;;0.10;0.10;;;4.50;99.90;;;;;;5090280;28;20167;-75
2021/01/03 09:22:40;;;;;;;0.80;0.70;;;4.50;99.90;;;;;;5088733;28;20249;-75
2021/01/03 09:25:25;;;;;;;1.00;1.00;;;4.60;99.90;;;;;;5089804;28;20198;-74
2021/01/03 09:27:55;;;;;;;1.20;1.17;;;4.80;99.90;;;;;;5090028;28;20152;-75
2021/01/03 09:30:34;;;;;;;2.63;2.42;;;4.90;99.90;;;;;;5088991;28;20202;-75
2021/01/03 09:33:12;;;;;;;0.47;0.47;;;5.00;99.90;;;;;;5089869;28;20201;-75
2021/01/03 09:36:19;;;;;;;0.47;0.47;;;5.10;99.90;;;;;;5088813;28;20184;-74
2021/01/03 09:39:26;;;;;;;0.75;0.75;;;5.00;99.90;;;;;;5087745;28;20183;-75
2021/01/03 09:42:26;;;;;;;0.30;0.30;;;5.00;99.90;;;;;;5034388;28;20233;-75
2021/01/03 09:45:30;;;;;;;0.25;0.25;;;5.10;99.90;;;;;;5089686;28;20684;-75
2021/01/03 09:47:58;;;;;;;2.58;1.98;;;5.00;99.90;;;;;;5089009;28;20219;-74
2021/01/03 09:50:42;;;;;;;0.98;0.98;;;5.00;99.90;;;;;;5089592;28;20152;-74
2021/01/03 09:53:24;;;;;;;0.60;0.60;;;5.10;99.90;;;;;;5089674;28;20198;-75
2021/01/03 09:55:58;;;;;;;0.85;0.85;;;5.10;99.90;;;;;;5089678;28;20219;-74
2021/01/03 09:58:38;;;;;;;0.40;0.40;;;5.20;99.90;;;;;;5089632;28;20195;-75
2021/01/03 10:01:06;;;;;;;1.38;1.30;;;5.30;99.90;;;;;;5089528;28;20152;-74
2021/01/03 10:03:41;;;;;;;2.92;1.55;;;5.30;99.90;;;;;;5089254;28;20152;-74
2021/01/03 10:06:18;;;;;;;0.20;0.20;;;5.30;99.90;;;;;;5089550;28;20670;-74
2021/01/03 10:08:46;;;;;;;0.30;0.30;;;5.50;99.90;;;;;;5106569;28;20174;-74
2021/01/03 10:11:28;;;;;;;1.70;1.55;;;5.50;99.90;;;;;;5109475;28;20177;-74
2021/01/03 10:13:59;;;;;;;0.75;0.75;;;5.60;99.90;;;;;;5109473;28;20159;-75
2021/01/03 10:16:28;;;;;;;3.13;1.63;;;5.70;99.90;;;;;;5109647;28;20177;-74
2021/01/03 10:18:55;;;;;;;2.03;1.05;;;5.70;99.90;;;;;;5109620;28;20187;-75
2021/01/03 10:21:28;;;;;;;1.80;1.42;;;5.90;99.90;;;;;;5109287;28;20252;-75
2021/01/03 10:23:57;;;;;;;0.63;0.63;;;6.10;99.90;;;;;;5106726;28;20213;-75
2021/01/03 10:26:32;;;;;;;1.20;1.20;;;6.40;99.90;;;;;;5105638;28;20689;-75
2021/01/03 10:28:59;;;;;;;0.55;0.55;;;6.50;99.90;;;;;;5107635;28;20541;-75
2021/01/03 10:31:36;;;;;;;1.77;1.65;;;6.70;99.90;;;;;;5108908;28;20288;-75
2021/01/03 10:34:01;;;;;;;0.40;0.40;;;6.80;99.90;;;;;;5108793;28;20161;-75
2021/01/03 10:36:27;;;;;;;3.70;2.15;;;6.90;99.90;;;;;;5107826;28;20167;-75
2021/01/03 10:38:53;;;;;;;1.35;1.30;;;7.00;99.90;;;;;;5107793;28;20174;-75
2021/01/03 10:41:19;;;;;;;0.52;0.52;;;7.00;99.90;;;;;;5108846;28;20286;-75
2021/01/03 10:43:46;;;;;;;0.45;0.45;;;7.10;99.90;;;;;;5108684;28;20223;-75
2021/01/03 10:46:15;;;;;;;0.40;0.40;;;7.10;99.90;;;;;;5109139;28;20163;-74
2021/01/03 10:48:41;;;;;;;1.13;1.10;;;7.00;99.90;;;;;;5108218;28;20194;-74
2021/01/03 10:51:06;;;;;;;0.98;0.43;;;6.90;99.90;;;;;;5109161;28;20148;-75
2021/01/03 10:53:32;;;;;;;0.70;0.68;;;6.90;99.90;;;;;;5108491;28;20267;-74
2021/01/03 10:55:59;;;;;;;0.57;0.57;;;6.70;99.90;;;;;;5109120;28;20189;-75
2021/01/03 10:58:25;;;;;;;0.28;0.28;;;6.70;99.90;;;;;;5108614;28;20188;-76
2021/01/03 11:00:51;;;;;;;0.73;0.73;;;6.30;99.90;;;;;;5107588;28;20258;-75
2021/01/03 11:03:17;;;;;;;0.60;0.60;;;6.20;99.90;;;;;;5107739;28;20217;-74
2021/01/03 11:05:42;;;;;;;1.35;1.35;;;6.00;99.90;;;;;;5108946;28;20191;-75
2021/01/03 11:08:08;;;;;;;1.08;0.65;;;6.10;99.90;;;;;;5108867;28;20164;-75
2021/01/03 11:10:34;;;;;;;1.67;1.58;;;6.20;99.90;;;;;;5109060;28;20160;-74
2021/01/03 11:13:00;;;;;;;1.85;1.52;;;6.10;99.90;;;;;;5108829;28;20187;-74
2021/01/03 11:15:26;;;;;;;0.35;0.35;;;6.10;99.90;;;;;;5108610;28;20529;-74
2021/01/03 11:17:52;;;;;;;1.27;1.25;;;6.00;99.90;;;;;;5107702;28;20168;-74
2021/01/03 11:20:19;;;;;;;6.13;2.17;;;6.00;99.90;;;;;;5108840;28;20163;-75
2021/01/03 11:22:47;;;;;;;0.47;0.47;;;6.00;99.90;;;;;;5108227;28;20198;-74
2021/01/03 11:25:13;;;;;;;0.28;0.28;;;6.00;99.90;;;;;;5108524;28;20213;-75
2021/01/03 11:27:39;;;;;;;1.17;1.17;;;6.00;99.90;;;;;;5108025;28;20238;-75
2021/01/03 11:30:07;;;;;;;1.38;1.27;;;6.10;99.90;;;;;;5108594;28;20155;-75
2021/01/03 11:32:33;;;;;;;2.00;1.88;;;6.40;99.90;;;;;;5108650;28;20164;-75
2021/01/03 11:34:59;;;;;;;1.60;1.27;;;6.80;99.90;;;;;;5107492;28;20230;-74
2021/01/03 11:37:27;;;;;;;0.85;0.85;;;7.20;99.90;;;;;;5107977;28;20199;-74
2021/01/03 11:39:54;;;;;;;1.58;1.55;;;7.40;99.90;;;;;;5111788;28;20160;-75
2021/01/03 11:42:40;;;;;;;0.73;0.73;;;7.50;99.90;;;;;;5111818;28;20171;-75
2021/01/03 11:45:15;;;;;;;0.43;0.43;;;7.70;99.90;;;;;;5112100;28;20190;-75
2021/01/03 11:47:41;;;;;;;0.32;0.32;;;8.00;99.90;;;;;;5110472;28;20262;-75
2021/01/03 11:50:10;;;;;;;2.72;1.25;;;8.70;99.90;;;;;;5112163;28;20154;-75
2021/01/03 11:52:36;;;;;;;3.30;3.10;;;8.90;99.90;;;;;;5111730;28;20221;-75
2021/01/03 11:55:03;;;;;;;2.03;1.50;;;8.90;99.90;;;;;;5110889;28;20246;-74
2021/01/03 11:57:29;;;;;;;2.67;1.67;;;8.70;99.90;;;;;;5110762;28;20163;-75
2021/01/03 11:59:55;;;;;;;1.48;1.25;;;8.30;99.90;;;;;;5112006;28;20571;-76
2021/01/03 12:02:21;;;;;;;0.73;0.73;;;7.90;99.90;;;;;;5110199;28;20214;-76
2021/01/03 12:04:48;;;;;;;3.80;2.97;;;7.60;99.90;;;;;;5110489;28;20206;-76
2021/01/03 12:07:17;;;;;;;1.35;1.27;;;7.30;99.90;;;;;;5111704;28;20495;-76
2021/01/03 12:09:45;;;;;;;0.63;0.63;;;7.10;99.90;;;;;;5111779;28;20228;-76
2021/01/03 12:12:13;;;;;;;0.47;0.47;;;6.80;99.90;;;;;;5111894;28;20191;-76
2021/01/03 12:14:40;;;;;;;0.47;0.47;;;6.60;99.90;;;;;;5110459;28;20163;-76
2021/01/03 12:17:08;;;;;;;0.47;0.47;;;6.40;99.90;;;;;;5106544;28;20182;-76
2021/01/03 12:19:35;;;;;;;0.30;0.30;;;6.40;99.90;;;;;;5101267;28;20197;-76
2021/01/03 12:22:02;;;;;;;1.10;1.08;;;6.40;99.90;;;;;;5111404;28;20159;-75
2021/01/03 12:24:29;;;;;;;1.05;0.80;;;6.50;99.90;;;;;;5109952;28;20195;-75
2021/01/03 12:26:55;;;;;;;2.63;1.67;;;6.60;99.90;;;;;;5111530;28;20155;-76
2021/01/03 12:29:23;;;;;;;0.38;0.38;;;6.70;99.90;;;;;;5111591;28;20251;-76
2021/01/03 12:31:55;;;;;;;0.77;0.77;;;6.70;99.90;;;;;;5111030;28;20160;-74
2021/01/03 12:34:24;;;;;;;0.55;0.55;;;6.80;99.90;;;;;;5110126;28;20247;-76
2021/01/03 12:36:50;;;;;;;2.40;1.50;;;6.80;99.90;;;;;;5099441;28;20186;-74
2021/01/03 12:39:18;;;;;;;2.05;0.68;;;6.70;99.90;;;;;;5091077;28;20190;-76
2021/01/03 12:41:44;;;;;;;0.50;0.50;;;6.70;99.90;;;;;;5090331;28;20229;-75
2021/01/03 12:44:10;;;;;;;3.40;1.95;;;6.70;99.90;;;;;;5108184;28;20227;-76
2021/01/03 12:46:39;;;;;;;0.90;0.90;;;6.60;99.90;;;;;;5111266;28;20167;-75
2021/01/03 12:49:06;;;;;;;1.50;1.40;;;6.50;99.90;;;;;;5111097;28;20184;-75
2021/01/03 12:51:33;;;;;;;0.30;0.30;;;6.40;99.90;;;;;;5111074;28;20220;-75
2021/01/03 12:53:59;;;;;;;1.55;1.45;;;6.20;99.90;;;;;;5111001;28;20561;-75
2021/01/03 12:56:26;;;;;;;1.60;1.52;;;6.00;99.90;;;;;;5111092;28;20159;-75
2021/01/03 12:59:00;;;;;;;0.95;0.95;;;5.70;99.90;;;;;;5102829;28;20175;-75
2021/01/03 13:01:31;;;;;;;1.10;1.10;;;5.60;99.90;;;;;;5106072;28;20171;-75
2021/01/03 13:03:58;;;;;;;0.88;0.88;;;5.60;99.90;;;;;;5095278;28;20214;-75
2021/01/03 13:06:24;;;;;;;3.13;0.88;;;5.60;99.90;;;;;;5093795;28;20155;-75
2021/01/03 13:08:50;;;;;;;0.45;0.45;;;5.60;99.90;;;;;;5108826;28;20191;-75
2021/01/03 13:11:16;;;;;;;1.67;1.30;;;5.60;99.90;;;;;;5110580;28;20242;-75
2021/01/03 13:13:42;;;;;;;0.22;0.22;;;5.50;99.90;;;;;;5110591;28;20166;-75
2021/01/03 13:16:09;;;;;;;0.73;0.73;;;5.30;99.90;;;;;;5096779;28;20164;-74
2021/01/03 13:18:35;;;;;;;1.55;1.20;;;5.40;99.90;;;;;;5090150;28;20188;-75
2021/01/03 13:21:01;;;;;;;1.08;0.57;;;5.30;99.90;;;;;;5090126;28;20187;-75